Time;durP1;ratioP1;P1;durP2;ratioP2;P2;SDS_P1;SDS_P2;PMS_P1;PMS_P2;Temp;Humidity;BMP_temperature;BMP_pressure;BME280_temperature;BME280_humidity;BME280_pressure;Samples;Min_cycle;Max_cycle;Signal;HPM_P1;HPM_P2
2021/10/20 00:40:44;;;;;;;0.50;0.50;;;;;;;1.79;69.54;100433.81;4852541;29;20501;-72
2021/10/20 00:43:10;;;;;;;0.50;0.50;;;;;;;1.72;69.86;100410.72;4859939;29;20072;-72
2021/10/20 00:45:37;;;;;;;0.85;0.85;;;;;;;1.78;69.88;100424.38;4859468;29;20049;-73
2021/10/20 00:48:03;;;;;;;11.63;1.42;;;;;;;1.76;69.89;100423.56;4843466;29;20080;-72
2021/10/20 00:50:29;;;;;;;1.05;0.90;;;;;;;1.76;69.77;100430.44;4859729;29;20684;-73
2021/10/20 00:52:56;;;;;;;0.80;0.80;;;;;;;1.75;70.30;100434.72;4859597;29;20076;-73
2021/10/20 00:55:22;;;;;;;0.43;0.43;;;;;;;1.73;70.50;100435.59;4859833;29;20053;-73
2021/10/20 00:57:48;;;;;;;0.70;0.70;;;;;;;1.70;70.09;100444.22;4842827;29;20110;-72
2021/10/20 01:00:15;;;;;;;0.60;0.60;;;;;;;1.65;69.43;100438.25;4842970;29;20540;-73
2021/10/20 01:02:41;;;;;;;0.73;0.73;;;;;;;1.67;69.35;100431.34;4842781;29;20091;-72
2021/10/20 01:05:08;;;;;;;15.52;0.95;;;;;;;1.61;69.67;100431.41;4859570;29;20053;-72
2021/10/20 01:07:37;;;;;;;3.10;0.95;;;;;;;1.60;69.69;100434.03;4842570;29;20116;-72
2021/10/20 01:10:04;;;;;;;0.63;0.63;;;;;;;1.60;69.92;100440.03;4859374;29;20049;-73
2021/10/20 01:12:30;;;;;;;1.25;1.02;;;;;;;1.56;70.63;100443.47;4859132;29;20056;-72
2021/10/20 01:14:56;;;;;;;0.98;0.98;;;;;;;1.54;70.99;100442.63;4859456;29;20049;-73
2021/10/20 01:17:22;;;;;;;4.68;0.90;;;;;;;1.53;71.23;100444.38;4859075;29;20057;-72
2021/10/20 01:19:48;;;;;;;0.82;0.82;;;;;;;1.46;70.73;100432.41;4859885;29;20053;-73
2021/10/20 01:22:14;;;;;;;1.45;0.60;;;;;;;1.42;71.19;100441.03;4843547;29;20178;-73
2021/10/20 01:24:40;;;;;;;0.60;0.60;;;;;;;1.35;71.37;100443.66;4858193;29;20053;-73
2021/10/20 01:27:06;;;;;;;2.55;1.58;;;;;;;1.27;71.80;100448.00;4842539;29;20049;-75
2021/10/20 01:29:33;;;;;;;0.80;0.80;;;;;;;1.20;71.98;100443.78;4857828;29;20110;-75
2021/10/20 01:32:00;;;;;;;1.00;1.00;;;;;;;1.21;71.91;100453.22;4859156;29;20048;-73
2021/10/20 01:34:26;;;;;;;0.77;0.77;;;;;;;1.18;71.91;100440.38;4859137;29;20061;-74
2021/10/20 01:36:52;;;;;;;0.75;0.75;;;;;;;1.11;72.15;100443.84;4858549;29;20090;-73
2021/10/20 01:39:21;;;;;;;1.25;1.25;;;;;;;1.02;72.45;100430.19;4839291;29;20061;-73
2021/10/20 01:41:47;;;;;;;1.15;1.08;;;;;;;0.98;72.97;100433.63;4838771;29;20068;-73
2021/10/20 01:44:14;;;;;;;0.60;0.60;;;;;;;0.99;73.07;100450.78;4840471;29;20501;-73
2021/10/20 01:46:40;;;;;;;1.48;1.30;;;;;;;0.94;73.30;100441.41;4838799;29;20119;-73
2021/10/20 01:49:06;;;;;;;3.92;1.13;;;;;;;0.96;73.66;100450.78;4840399;29;20053;-72
2021/10/20 01:51:32;;;;;;;0.85;0.85;;;;;;;0.93;73.45;100448.25;4840022;29;20172;-73
2021/10/20 01:53:58;;;;;;;0.90;0.90;;;;;;;0.87;74.05;100450.88;4839061;29;20057;-73
2021/10/20 01:56:24;;;;;;;1.38;1.27;;;;;;;0.91;73.75;100449.13;4823787;29;20131;-73
2021/10/20 01:58:50;;;;;;;1.25;1.25;;;;;;;0.89;74.10;100453.41;4839894;29;20049;-72
2021/10/20 02:01:16;;;;;;;0.50;0.50;;;;;;;0.93;73.29;100455.97;4839935;29;20060;-73
2021/10/20 02:03:43;;;;;;;4.07;1.17;;;;;;;0.95;72.95;100443.09;4838855;29;20124;-73
2021/10/20 02:06:16;;;;;;;0.50;0.50;;;;;;;0.97;72.57;100446.50;4839920;29;20054;-72
2021/10/20 02:08:43;;;;;;;1.52;1.42;;;;;;;0.99;72.22;100444.78;4839950;29;20062;-73
2021/10/20 02:11:09;;;;;;;0.88;0.88;;;;;;;1.02;72.46;100467.88;4823345;29;20123;-73
2021/10/20 02:13:35;;;;;;;6.03;0.90;;;;;;;1.00;72.28;100462.78;4839708;29;20060;-74
2021/10/20 02:16:03;;;;;;;0.60;0.60;;;;;;;0.96;72.23;100467.94;4839826;29;20546;-72
2021/10/20 02:18:29;;;;;;;0.80;0.80;;;;;;;0.95;72.36;100468.78;4839921;29;20050;-73
2021/10/20 02:20:55;;;;;;;0.80;0.80;;;;;;;0.92;72.73;100479.09;4839791;29;20526;-73
2021/10/20 02:23:21;;;;;;;0.73;0.73;;;;;;;0.82;72.75;100478.28;4840370;29;20058;-73
2021/10/20 02:25:47;;;;;;;0.55;0.55;;;;;;;0.79;72.70;100475.72;4839546;29;20512;-73
2021/10/20 02:28:14;;;;;;;2.05;1.10;;;;;;;0.75;72.31;100475.78;4839551;29;20424;-73
2021/10/20 02:30:41;;;;;;;1.00;1.00;;;;;;;0.71;72.37;100474.06;4838195;29;20114;-72
2021/10/20 02:33:07;;;;;;;0.80;0.80;;;;;;;0.66;72.99;100486.94;4839430;29;20058;-73
2021/10/20 02:35:33;;;;;;;0.77;0.75;;;;;;;0.58;73.10;100488.69;4839315;29;20145;-73
2021/10/20 02:37:59;;;;;;;0.60;0.60;;;;;;;0.54;73.15;100484.44;4839457;29;20057;-74
2021/10/20 02:40:25;;;;;;;0.80;0.75;;;;;;;0.55;73.25;100483.56;4839300;29;20144;-73
2021/10/20 02:42:52;;;;;;;1.25;1.25;;;;;;;0.51;73.02;100490.44;4839028;29;20054;-73
2021/10/20 02:45:18;;;;;;;1.08;1.02;;;;;;;0.52;73.36;100488.72;4823289;29;20450;-72
2021/10/20 02:47:44;;;;;;;0.70;0.70;;;;;;;0.49;73.88;100481.88;4838726;29;20056;-73
2021/10/20 02:50:10;;;;;;;1.08;1.08;;;;;;;0.45;73.52;100476.78;4839265;29;20065;-73
2021/10/20 02:52:36;;;;;;;2.50;1.33;;;;;;;0.44;73.91;100487.88;4807789;29;20050;-71
2021/10/20 02:55:03;;;;;;;2.15;1.27;;;;;;;0.47;73.72;100490.44;4839432;29;20521;-74
2021/10/20 02:57:30;;;;;;;2.00;1.90;;;;;;;0.47;73.71;100487.88;4822876;29;20429;-73
2021/10/20 02:59:57;;;;;;;0.68;0.68;;;;;;;0.38;74.07;100483.63;4838912;29;20065;-72
2021/10/20 03:02:26;;;;;;;0.70;0.70;;;;;;;0.38;74.20;100481.06;4833458;29;20061;-73
2021/10/20 03:04:52;;;;;;;0.98;0.98;;;;;;;0.35;74.43;100505.91;4837884;29;20197;-73
2021/10/20 03:07:18;;;;;;;0.95;0.95;;;;;;;0.27;74.96;100502.50;4838920;29;20402;-74
2021/10/20 03:09:44;;;;;;;1.10;1.02;;;;;;;0.25;74.80;100504.22;4823624;29;20058;-72
2021/10/20 03:12:11;;;;;;;0.77;0.77;;;;;;;0.20;75.46;100500.78;4804367;29;20054;-73
2021/10/20 03:14:36;;;;;;;1.15;1.15;;;;;;;0.17;75.57;100521.34;4820563;29;20058;-72
2021/10/20 03:17:03;;;;;;;0.85;0.85;;;;;;;0.10;75.95;100517.09;4815050;29;20050;-72
2021/10/20 03:19:29;;;;;;;0.55;0.55;;;;;;;0.10;75.92;100525.63;4822723;29;20072;-72
2021/10/20 03:21:55;;;;;;;0.80;0.80;;;;;;;0.02;76.21;100542.78;4822226;29;20574;-72
2021/10/20 03:24:20;;;;;;;0.50;0.50;;;;;;;-0.06;76.60;100550.47;4838842;29;20081;-73
2021/10/20 03:26:47;;;;;;;0.90;0.90;;;;;;;-0.19;77.90;100548.75;4822118;29;20156;-73
2021/10/20 03:29:13;;;;;;;0.45;0.45;;;;;;;-0.14;78.04;100554.75;4838873;29;20050;-72
2021/10/20 03:31:39;;;;;;;0.50;0.50;;;;;;;-0.15;77.91;100555.59;4838445;29;20062;-71
2021/10/20 03:34:05;;;;;;;1.73;1.63;;;;;;;-0.14;77.75;100552.19;4838896;29;20077;-72
2021/10/20 03:36:31;;;;;;;0.70;0.70;;;;;;;-0.18;78.22;100557.31;4807323;29;20083;-73
2021/10/20 03:38:57;;;;;;;0.50;0.50;;;;;;;-0.08;77.83;100554.75;4819841;29;20083;-72
2021/10/20 03:41:23;;;;;;;0.57;0.57;;;;;;;-0.05;78.06;100553.91;4819193;29;20590;-74
2021/10/20 03:43:49;;;;;;;0.95;0.95;;;;;;;-0.13;78.04;100548.75;4820121;29;20107;-75
2021/10/20 03:46:15;;;;;;;1.38;1.27;;;;;;;-0.20;78.33;100541.94;4822176;29;20115;-74
2021/10/20 03:48:41;;;;;;;0.50;0.50;;;;;;;-0.15;78.79;100549.63;4822149;29;20194;-73
2021/10/20 03:51:07;;;;;;;0.60;0.60;;;;;;;-0.07;78.00;100568.44;4838769;29;20490;-74
2021/10/20 03:53:33;;;;;;;0.50;0.50;;;;;;;-0.02;77.60;100557.31;4822418;29;20486;-72
2021/10/20 03:56:00;;;;;;;0.85;0.85;;;;;;;0.04;77.26;100563.28;4815925;29;20062;-73
2021/10/20 03:58:26;;;;;;;2.03;1.33;;;;;;;0.04;77.47;100561.56;4820925;29;20156;-73
2021/10/20 04:00:54;;;;;;;0.70;0.70;;;;;;;0.04;77.18;100558.16;4809890;29;20054;-72
2021/10/20 04:03:20;;;;;;;0.68;0.68;;;;;;;-0.02;77.08;100562.44;4825319;29;20317;-73
2021/10/20 04:05:47;;;;;;;0.60;0.60;;;;;;;0.00;77.83;100565.84;4825702;29;20065;-72
2021/10/20 04:08:13;;;;;;;0.57;0.57;;;;;;;-0.02;78.42;100567.56;4822569;29;20473;-74
2021/10/20 04:10:40;;;;;;;0.60;0.60;;;;;;;0.03;77.76;100565.03;4807434;29;20050;-74
2021/10/20 04:13:06;;;;;;;1.20;1.20;;;;;;;0.10;77.91;100576.13;4823940;29;20050;-75
2021/10/20 04:15:33;;;;;;;0.60;0.60;;;;;;;0.07;78.08;100570.97;4807600;29;20125;-73
2021/10/20 04:17:59;;;;;;;0.52;0.52;;;;;;;0.10;77.96;100573.56;4823399;29;20058;-73
2021/10/20 04:20:25;;;;;;;0.50;0.50;;;;;;;0.15;77.77;100564.13;4823722;29;20422;-72
2021/10/20 04:22:51;;;;;;;0.60;0.60;;;;;;;0.16;77.53;100579.56;4823009;29;20050;-72
2021/10/20 04:25:18;;;;;;;0.70;0.70;;;;;;;0.15;77.87;100584.66;4823493;29;20120;-72
2021/10/20 04:27:45;;;;;;;0.47;0.47;;;;;;;0.19;77.58;100582.13;4823083;29;20624;-72
2021/10/20 04:30:13;;;;;;;0.80;0.80;;;;;;;0.62;75.73;100582.88;4823243;29;20086;-73
2021/10/20 04:32:39;;;;;;;0.60;0.60;;;;;;;0.78;73.79;100578.53;4806387;29;20054;-73
2021/10/20 04:35:06;;;;;;;0.40;0.40;;;;;;;0.41;75.16;100577.78;4807097;29;20180;-74
2021/10/20 04:37:33;;;;;;;0.60;0.60;;;;;;;0.28;75.69;100578.66;4823310;29;20084;-74
2021/10/20 04:40:00;;;;;;;0.52;0.52;;;;;;;0.28;75.61;100576.09;4830571;29;20145;-74
2021/10/20 04:42:27;;;;;;;0.57;0.57;;;;;;;0.27;75.57;100577.81;4842325;29;20549;-74
2021/10/20 04:44:53;;;;;;;0.90;0.90;;;;;;;0.28;75.18;100582.09;4826425;29;20061;-73
2021/10/20 04:47:19;;;;;;;0.80;0.80;;;;;;;0.26;75.51;100582.97;4842078;29;20058;-73
2021/10/20 04:49:46;;;;;;;0.50;0.50;;;;;;;0.26;75.34;100582.97;4840453;29;20408;-72
2021/10/20 04:52:12;;;;;;;0.50;0.50;;;;;;;0.31;75.23;100570.94;4849159;29;20054;-74
2021/10/20 04:54:38;;;;;;;0.50;0.50;;;;;;;0.29;74.59;100562.41;4828102;29;20076;-73
2021/10/20 04:57:04;;;;;;;0.60;0.60;;;;;;;0.32;74.22;100572.66;4828036;29;20057;-73
2021/10/20 04:59:34;;;;;;;0.65;0.65;;;;;;;0.47;74.03;100572.63;4854369;29;20054;-73
2021/10/20 05:02:03;;;;;;;0.68;0.68;;;;;;;0.59;73.32;100582.84;4839581;29;20122;-73
2021/10/20 05:04:30;;;;;;;0.75;0.75;;;;;;;2.04;69.87;100576.88;4841008;29;20049;-74
2021/10/20 05:06:56;;;;;;;0.80;0.80;;;;;;;3.10;63.75;100569.72;4840687;29;20050;-73
2021/10/20 05:09:22;;;;;;;0.50;0.50;;;;;;;2.37;65.78;100570.56;4839616;29;20083;-74
2021/10/20 05:11:48;;;;;;;0.80;0.80;;;;;;;2.13;67.47;100575.09;4824301;29;20061;-73
2021/10/20 05:14:14;;;;;;;0.60;0.60;;;;;;;2.44;66.23;100573.94;4829444;29;20084;-74
2021/10/20 05:16:41;;;;;;;0.90;0.90;;;;;;;3.20;62.83;100565.28;4854977;29;20052;-74
2021/10/20 05:19:07;;;;;;;1.00;1.00;;;;;;;3.21;62.13;100560.09;4842477;29;20096;-74
2021/10/20 05:21:32;;;;;;;0.60;0.60;;;;;;;2.33;64.15;100565.44;4840830;29;20053;-73
2021/10/20 05:23:58;;;;;;;0.90;0.90;;;;;;;2.99;63.60;100569.84;4850135;29;20057;-73
2021/10/20 05:26:25;;;;;;;0.55;0.55;;;;;;;3.32;61.40;100568.53;4859607;29;20740;-73
2021/10/20 05:28:50;;;;;;;0.70;0.70;;;;;;;2.63;64.42;100560.81;4842567;29;20091;-73
2021/10/20 05:31:16;;;;;;;2.40;1.33;;;;;;;3.42;62.32;100558.94;4859099;29;20060;-73
2021/10/20 05:33:42;;;;;;;0.75;0.75;;;;;;;4.35;58.72;100550.53;4842280;29;20132;-73
2021/10/20 05:36:08;;;;;;;1.00;1.00;;;;;;;4.46;58.33;100561.50;4858948;29;20711;-74
2021/10/20 05:38:35;;;;;;;1.00;1.00;;;;;;;4.41;57.85;100563.31;4858927;29;20057;-71
2021/10/20 05:41:01;;;;;;;1.00;1.00;;;;;;;4.58;57.32;100571.63;4842138;29;20118;-74
2021/10/20 05:43:28;;;;;;;3.50;2.17;;;;;;;5.70;55.10;100558.84;4858746;29;20065;-73
2021/10/20 05:45:54;;;;;;;1.10;1.10;;;;;;;4.72;56.29;100554.09;4858600;29;20049;-73
2021/10/20 05:48:23;;;;;;;1.10;1.10;;;;;;;4.96;56.33;100561.38;4843556;29;20053;-78
2021/10/20 05:50:49;;;;;;;0.98;0.98;;;;;;;4.73;56.48;100567.00;4858834;29;20190;-77
2021/10/20 05:53:15;;;;;;;1.30;1.30;;;;;;;5.32;55.50;100562.31;4854442;29;20054;-77
2021/10/20 05:55:43;;;;;;;1.20;1.20;;;;;;;5.54;53.70;100563.53;4856837;29;20061;-77
2021/10/20 05:58:10;;;;;;;1.85;1.75;;;;;;;6.03;53.18;100560.66;4851736;29;20428;-76
2021/10/20 06:00:36;;;;;;;1.38;1.38;;;;;;;5.42;53.67;100562.97;4840768;29;20035;-77
2021/10/20 06:03:03;;;;;;;1.20;1.20;;;;;;;5.47;54.86;100556.78;4856607;29;20052;-77
2021/10/20 06:05:29;;;;;;;1.67;1.42;;;;;;;5.89;53.25;100554.13;4840892;29;20113;-77
2021/10/20 06:07:56;;;;;;;0.70;0.70;;;;;;;5.47;55.13;100561.09;4857764;29;20053;-77
2021/10/20 06:10:22;;;;;;;0.98;0.98;;;;;;;5.31;55.48;100567.50;4840298;29;20451;-77
2021/10/20 06:12:48;;;;;;;0.90;0.90;;;;;;;4.30;58.01;100570.41;4841290;29;20508;-79
2021/10/20 06:15:21;;;;;;;1.00;1.00;;;;;;;4.96;56.11;100569.13;4841236;29;20102;-78
2021/10/20 06:17:48;;;;;;;1.20;1.20;;;;;;;5.98;53.12;100567.69;4860134;29;20056;-77
2021/10/20 06:20:14;;;;;;;0.82;0.82;;;;;;;4.32;57.41;100566.09;4859877;29;20054;-77
2021/10/20 06:22:42;;;;;;;0.70;0.70;;;;;;;4.64;56.66;100567.19;4819505;29;20085;-78
2021/10/20 06:25:11;;;;;;;1.08;1.08;;;;;;;5.75;53.92;100562.19;4854217;29;20056;-77
2021/10/20 06:27:39;;;;;;;0.98;0.98;;;;;;;5.68;53.88;100563.22;4840240;29;20064;-76
2021/10/20 06:30:05;;;;;;;0.90;0.90;;;;;;;6.10;52.22;100556.16;4857017;29;20057;-80
2021/10/20 06:32:31;;;;;;;1.10;1.10;;;;;;;6.49;50.83;100552.53;4856716;29;20056;-77
2021/10/20 06:34:57;;;;;;;0.90;0.90;;;;;;;6.72;50.08;100541.50;4840227;29;20061;-78
2021/10/20 06:37:23;;;;;;;0.82;0.82;;;;;;;7.44;48.05;100545.44;4854747;29;20057;-77
2021/10/20 06:39:50;;;;;;;1.30;1.30;;;;;;;6.72;49.56;100559.69;4839531;29;20154;-78
2021/10/20 06:42:16;;;;;;;1.40;1.27;;;;;;;5.95;51.96;100553.97;4838826;29;20064;-77
2021/10/20 06:44:42;;;;;;;1.00;1.00;;;;;;;5.37;53.11;100554.44;4855660;29;20057;-75
2021/10/20 06:47:08;;;;;;;0.77;0.77;;;;;;;5.22;54.01;100559.06;4820078;29;20859;-75
2021/10/20 06:49:34;;;;;;;1.65;1.55;;;;;;;5.85;53.33;100552.44;4850419;29;20110;-75
2021/10/20 06:52:00;;;;;;;1.05;1.05;;;;;;;5.51;52.58;100539.44;4863530;29;20041;-79
2021/10/20 06:54:27;;;;;;;0.73;0.73;;;;;;;3.60;57.94;100546.59;4830229;29;20060;-84
2021/10/20 06:56:53;;;;;;;0.82;0.82;;;;;;;3.60;58.69;100550.91;4852905;29;20088;-80
2021/10/20 06:59:19;;;;;;;1.20;1.17;;;;;;;4.25;56.90;100543.81;4866228;29;20088;-79
2021/10/20 07:01:46;;;;;;;0.90;0.90;;;;;;;4.46;57.39;100541.66;4831008;29;20045;-79
2021/10/20 07:04:14;;;;;;;1.50;1.50;;;;;;;5.34;54.32;100534.66;4863593;29;20110;-82
2021/10/20 07:06:41;;;;;;;2.47;2.28;;;;;;;6.28;51.67;100533.19;4813522;29;20190;-78
2021/10/20 07:09:07;;;;;;;1.95;1.85;;;;;;;6.09;51.29;100529.38;4859342;29;20670;-76
2021/10/20 07:11:33;;;;;;;0.90;0.90;;;;;;;6.80;49.61;100529.19;4859451;29;20132;-79
2021/10/20 07:13:59;;;;;;;1.00;1.00;;;;;;;6.26;51.95;100521.16;4842280;29;20061;-80
2021/10/20 07:16:25;;;;;;;1.60;1.50;;;;;;;6.45;49.37;100524.09;4859254;29;20079;-76
2021/10/20 07:18:52;;;;;;;0.82;0.82;;;;;;;5.98;50.62;100523.63;4841820;29;20055;-78
2021/10/20 07:21:18;;;;;;;0.65;0.65;;;;;;;5.46;52.10;100525.75;4826464;29;20057;-80
2021/10/20 07:23:44;;;;;;;1.00;1.00;;;;;;;7.13;48.34;100512.59;4859930;29;20054;-79
2021/10/20 07:26:11;;;;;;;0.95;0.95;;;;;;;5.91;51.26;100516.06;4840661;29;20053;-78
2021/10/20 07:28:39;;;;;;;1.25;1.25;;;;;;;4.36;54.44;100534.13;4839288;29;20053;-79
2021/10/20 07:31:08;;;;;;;0.40;0.40;;;;;;;3.24;59.02;100543.72;4843545;29;20341;-75
2021/10/20 07:33:34;;;;;;;0.45;0.45;;;;;;;2.81;59.68;100539.16;4831956;29;20428;-82
2021/10/20 07:36:01;;;;;;;0.50;0.50;;;;;;;2.58;60.59;100535.97;4813942;29;20056;-83
2021/10/20 07:38:27;;;;;;;0.90;0.90;;;;;;;2.97;59.50;100532.91;4849240;29;20206;-83
2021/10/20 07:40:53;;;;;;;0.57;0.57;;;;;;;3.07;59.63;100523.31;4845221;29;20058;-83
2021/10/20 07:43:18;;;;;;;0.70;0.70;;;;;;;4.11;55.99;100524.25;4823709;29;20467;-77
2021/10/20 07:45:44;;;;;;;0.60;0.60;;;;;;;4.85;55.21;100502.97;4839398;29;20053;-83
2021/10/20 07:48:11;;;;;;;1.13;1.13;;;;;;;5.60;53.06;100498.63;4799276;29;20069;-83
2021/10/20 07:50:39;;;;;;;1.40;1.40;;;;;;;5.64;52.44;100487.31;4813762;29;20053;-83
2021/10/20 07:53:05;;;;;;;1.05;1.05;;;;;;;5.72;51.04;100490.59;4839058;29;20058;-80
2021/10/20 07:55:32;;;;;;;1.13;0.80;;;;;;;4.95;52.78;100505.31;4808213;29;20521;-81
2021/10/20 07:57:58;;;;;;;0.68;0.68;;;;;;;3.95;55.94;100499.56;4800635;29;20047;-78
2021/10/20 08:00:24;;;;;;;0.73;0.73;;;;;;;4.34;55.65;100500.56;4817660;29;20077;-77
2021/10/20 08:02:50;;;;;;;0.73;0.73;;;;;;;3.30;59.04;100494.63;4806218;29;20050;-76
2021/10/20 08:05:16;;;;;;;0.80;0.80;;;;;;;3.36;59.88;100510.88;4821950;29;20076;-75
2021/10/20 08:07:46;;;;;;;1.17;1.17;;;;;;;4.66;56.62;100503.34;4821864;29;20050;-75
2021/10/20 08:10:17;;;;;;;0.60;0.60;;;;;;;3.43;60.71;100502.16;4822247;29;20058;-75
2021/10/20 08:12:43;;;;;;;;;;;;;;;3.40;61.01;100503.94;4807143;29;20057;-77
2021/10/20 08:15:11;;;;;;;0.90;0.90;;;;;;;3.15;61.60;100504.28;4821582;29;19924;-80
2021/10/20 08:17:38;;;;;;;0.70;0.70;;;;;;;2.84;62.42;100509.88;4821759;29;20058;-79
2021/10/20 08:20:09;;;;;;;0.88;0.88;;;;;;;2.62;61.74;100498.97;4821259;29;20105;-79
2021/10/20 08:22:39;;;;;;;1.25;1.25;;;;;;;2.77;62.33;100513.41;4837038;29;20140;-82
2021/10/20 08:25:06;;;;;;;3.72;1.02;;;;;;;2.68;63.71;100501.50;4836859;29;20050;-78
2021/10/20 08:27:32;;;;;;;0.75;0.75;;;;;;;2.54;64.05;100493.94;4801185;29;20061;-78
2021/10/20 08:29:58;;;;;;;0.70;0.70;;;;;;;2.39;63.30;100490.69;4819889;29;20077;-79
2021/10/20 08:32:25;;;;;;;0.93;0.93;;;;;;;2.53;64.20;100491.38;4821347;29;20061;-77
2021/10/20 08:34:52;;;;;;;0.77;0.77;;;;;;;2.63;63.32;100486.09;4843380;29;20440;-78
2021/10/20 08:37:18;;;;;;;1.48;1.48;;;;;;;2.45;64.12;100490.63;4812056;29;20083;-79
2021/10/20 08:39:45;;;;;;;0.93;0.93;;;;;;;2.28;65.28;100483.06;4825777;29;20066;-81
2021/10/20 08:42:11;;;;;;;0.68;0.68;;;;;;;2.12;65.64;100485.84;4854599;29;20124;-80
2021/10/20 08:44:38;;;;;;;0.60;0.60;;;;;;;2.03;66.17;100477.31;4820269;29;20057;-79
2021/10/20 08:47:04;;;;;;;0.57;0.57;;;;;;;2.12;65.65;100470.38;4861705;29;20084;-82
2021/10/20 08:49:30;;;;;;;0.50;0.50;;;;;;;2.03;65.45;100472.16;4844171;29;20061;-80
2021/10/20 08:51:56;;;;;;;0.75;0.75;;;;;;;2.00;65.90;100464.47;4842876;29;20164;-80
2021/10/20 08:54:22;;;;;;;0.82;0.82;;;;;;;2.21;66.26;100462.56;4842928;29;20117;-80
2021/10/20 08:56:48;;;;;;;0.70;0.70;;;;;;;2.10;65.79;100457.50;4842958;29;20057;-79
2021/10/20 08:59:18;;;;;;;1.30;0.80;;;;;;;2.04;65.97;100453.28;4859196;29;20049;-80
2021/10/20 09:01:44;;;;;;;0.82;0.82;;;;;;;1.96;66.37;100470.53;4859635;29;20061;-80
2021/10/20 09:04:11;;;;;;;0.60;0.60;;;;;;;2.06;65.89;100451.53;4842385;29;20060;-82
2021/10/20 09:06:38;;;;;;;0.90;0.90;;;;;;;2.15;66.91;100449.75;4843916;29;20161;-80
2021/10/20 09:09:06;;;;;;;18.60;1.92;;;;;;;2.15;66.70;100450.59;4858988;29;20049;-80
2021/10/20 09:11:33;;;;;;;1.17;1.17;;;;;;;2.14;67.36;100445.47;4871898;29;20060;-81
2021/10/20 09:14:00;;;;;;;6.70;0.98;;;;;;;2.21;66.05;100447.09;4858360;29;20055;-80
2021/10/20 09:16:27;;;;;;;0.75;0.75;;;;;;;2.19;65.18;100446.28;4842306;29;20061;-79
2021/10/20 09:18:53;;;;;;;1.02;1.02;;;;;;;2.10;66.46;100448.06;4842309;29;20056;-82
2021/10/20 09:21:19;;;;;;;0.80;0.80;;;;;;;2.26;66.76;100448.75;4844055;29;20458;-80
2021/10/20 09:23:46;;;;;;;0.60;0.60;;;;;;;2.22;65.11;100452.25;4859119;29;20057;-82
2021/10/20 09:26:12;;;;;;;0.57;0.57;;;;;;;2.05;65.43;100449.00;4859430;29;20049;-77
2021/10/20 09:28:39;;;;;;;0.73;0.73;;;;;;;2.19;64.51;100446.28;4826906;29;20434;-79
2021/10/20 09:31:06;;;;;;;0.80;0.80;;;;;;;2.20;63.24;100440.22;4841996;29;20077;-79
2021/10/20 09:33:33;;;;;;;0.77;0.77;;;;;;;2.22;64.44;100435.94;4859440;29;20101;-79
2021/10/20 09:36:04;;;;;;;0.82;0.82;;;;;;;2.43;63.61;100436.50;4843410;29;20049;-80
2021/10/20 09:38:37;;;;;;;0.77;0.77;;;;;;;2.44;64.11;100434.78;4858571;29;20520;-79
2021/10/20 09:41:04;;;;;;;1.33;1.33;;;;;;;2.81;62.93;100428.28;4841877;29;20053;-80
2021/10/20 09:43:31;;;;;;;0.80;0.80;;;;;;;2.59;63.62;100426.84;4837318;29;20062;-79
2021/10/20 09:45:57;;;;;;;0.82;0.82;;;;;;;2.73;63.11;100424.09;4839789;29;20054;-78
2021/10/20 09:48:24;;;;;;;0.70;0.70;;;;;;;3.07;62.89;100425.31;4778470;29;20213;-80
2021/10/20 09:51:03;;;;;;;0.45;0.45;;;;;;;3.30;61.35;100417.22;4838354;29;20053;-83
2021/10/20 09:53:31;;;;;;;0.98;0.98;;;;;;;3.01;60.16;100410.78;4840616;29;20072;-79
2021/10/20 09:56:02;;;;;;;1.98;1.00;;;;;;;2.90;61.66;100402.38;4823543;29;20057;-78
2021/10/20 09:58:30;;;;;;;0.80;0.80;;;;;;;3.13;61.48;100395.13;4823705;29;20058;-79
2021/10/20 10:00:56;;;;;;;0.70;0.70;;;;;;;3.44;60.71;100397.19;4804827;29;20066;-80
2021/10/20 10:03:25;;;;;;;0.63;0.63;;;;;;;3.36;60.27;100391.31;4823247;29;20054;-80
2021/10/20 10:05:54;;;;;;;0.75;0.75;;;;;;;3.01;60.12;100394.47;4814285;29;20061;-80
2021/10/20 10:08:25;;;;;;;1.05;1.05;;;;;;;3.13;60.71;100378.78;4809040;29;20382;-82
2021/10/20 10:10:51;;;;;;;0.82;0.82;;;;;;;3.03;61.01;100383.25;4803422;29;20469;-80
2021/10/20 10:13:23;;;;;;;1.23;1.13;;;;;;;3.14;60.65;100376.19;4808638;29;20061;-79
2021/10/20 10:15:49;;;;;;;;;;;;;;;3.34;59.92;100364.69;4825755;29;20720;-81
2021/10/20 10:18:15;;;;;;;0.60;0.60;;;;;;;3.21;59.67;100368.38;4840327;29;19925;-80
2021/10/20 10:20:43;;;;;;;0.65;0.65;;;;;;;3.34;59.99;100346.63;4823309;29;20106;-79
2021/10/20 10:23:27;;;;;;;0.65;0.65;;;;;;;3.39;59.80;100353.41;4839122;29;20515;-79
2021/10/20 10:25:59;;;;;;;1.83;1.30;;;;;;;3.31;58.41;100349.25;4822805;29;20054;-78
2021/10/20 10:28:32;;;;;;;0.82;0.82;;;;;;;3.32;59.18;100340.63;4837728;29;20060;-79
2021/10/20 10:31:06;;;;;;;0.77;0.77;;;;;;;3.56;58.96;100345.38;4833952;29;20050;-80
2021/10/20 10:33:38;;;;;;;0.40;0.40;;;;;;;3.46;59.24;100346.41;4802610;29;20535;-80
2021/10/20 10:36:16;;;;;;;0.90;0.90;;;;;;;3.61;58.75;100351.28;4819384;29;20061;-79
2021/10/20 10:38:46;;;;;;;0.82;0.82;;;;;;;3.78;58.83;100333.75;4803702;29;20058;-80
2021/10/20 10:41:17;;;;;;;0.93;0.93;;;;;;;3.60;59.36;100322.03;4825763;29;20045;-78
2021/10/20 10:44:02;;;;;;;0.80;0.80;;;;;;;3.79;57.71;100324.25;4821768;29;20053;-80
2021/10/20 10:46:31;;;;;;;0.80;0.80;;;;;;;3.73;57.38;100314.88;4839748;29;20061;-78
2021/10/20 10:48:58;;;;;;;6.32;0.90;;;;;;;3.58;56.76;100294.56;4839198;29;20053;-79
2021/10/20 10:51:24;;;;;;;0.70;0.70;;;;;;;3.84;55.96;100281.97;4837604;29;20054;-81
2021/10/20 10:53:51;;;;;;;0.90;0.90;;;;;;;3.66;56.38;100267.69;4823299;29;20053;-78
2021/10/20 10:56:17;;;;;;;0.75;0.75;;;;;;;3.78;57.44;100276.94;4836999;29;20066;-79
2021/10/20 10:59:06;;;;;;;0.80;0.80;;;;;;;3.67;57.31;100264.25;4821733;29;20057;-79
2021/10/20 11:01:43;;;;;;;7.30;0.80;;;;;;;3.62;57.76;100265.22;4821690;29;20081;-80
2021/10/20 11:04:23;;;;;;;0.70;0.70;;;;;;;3.46;57.36;100279.31;4821736;29;20164;-78
2021/10/20 11:06:53;;;;;;;0.73;0.73;;;;;;;3.49;57.49;100279.25;4822730;29;20061;-78
2021/10/20 11:09:30;;;;;;;0.43;0.43;;;;;;;3.61;57.35;100284.16;4839635;29;20050;-78
2021/10/20 11:11:56;;;;;;;0.50;0.50;;;;;;;3.55;58.63;100274.81;4824322;29;20053;-80
2021/10/20 11:14:23;;;;;;;0.80;0.80;;;;;;;3.79;58.67;100285.53;4823329;29;20088;-79
2021/10/20 11:16:55;;;;;;;0.93;0.93;;;;;;;3.72;55.87;100271.03;4823104;29;20065;-82
2021/10/20 11:19:21;;;;;;;0.77;0.77;;;;;;;3.93;56.66;100274.03;4823708;29;20057;-81
2021/10/20 11:21:48;;;;;;;0.93;0.90;;;;;;;3.79;57.34;100258.00;4838956;29;20058;-79
2021/10/20 11:24:14;;;;;;;0.70;0.70;;;;;;;3.85;57.14;100263.03;4807662;29;20054;-79
2021/10/20 11:26:40;;;;;;;0.68;0.68;;;;;;;3.79;57.62;100262.31;4839126;29;20106;-81
2021/10/20 11:29:07;;;;;;;0.98;0.98;;;;;;;3.84;56.63;100260.47;4822942;29;20061;-80
2021/10/20 11:31:37;;;;;;;5.60;1.40;;;;;;;3.81;56.81;100263.09;4792778;29;20486;-81
2021/10/20 11:34:24;;;;;;;0.80;0.80;;;;;;;4.04;57.16;100274.66;4823221;29;20257;-79
2021/10/20 11:36:50;;;;;;;2.08;1.40;;;;;;;4.08;57.34;100262.53;4839151;29;20054;-78
2021/10/20 11:39:17;;;;;;;0.80;0.80;;;;;;;3.96;55.98;100261.03;4841822;29;20166;-80
2021/10/20 11:42:13;;;;;;;0.60;0.60;;;;;;;4.13;56.30;100264.13;4786326;29;20057;-80
2021/10/20 11:44:44;;;;;;;0.50;0.50;;;;;;;4.05;56.06;100265.19;4825399;29;20069;-81
2021/10/20 11:47:14;;;;;;;1.15;1.05;;;;;;;4.17;55.41;100239.06;4840113;29;20114;-80
2021/10/20 11:49:52;;;;;;;0.80;0.80;;;;;;;4.03;53.72;100243.69;4824244;29;20615;-81
2021/10/20 11:52:20;;;;;;;0.63;0.63;;;;;;;4.07;53.58;100228.09;4807572;29;20298;-79
2021/10/20 11:54:46;;;;;;;0.90;0.90;;;;;;;4.00;52.54;100226.53;4840356;29;20552;-80
2021/10/20 11:57:15;;;;;;;0.75;0.75;;;;;;;4.12;52.60;100217.66;4824306;29;20050;-80
2021/10/20 11:59:42;;;;;;;1.15;1.15;;;;;;;4.08;52.20;100214.31;4852733;29;20074;-80
2021/10/20 12:02:08;;;;;;;0.73;0.73;;;;;;;3.96;51.80;100211.16;4835447;29;20065;-79
2021/10/20 12:04:34;;;;;;;0.60;0.60;;;;;;;3.96;52.51;100213.72;4857235;29;20516;-79
2021/10/20 12:07:04;;;;;;;0.70;0.70;;;;;;;3.81;52.77;100212.31;4840161;29;20098;-79
2021/10/20 12:09:31;;;;;;;0.80;0.80;;;;;;;3.93;52.77;100193.97;4818499;29;20533;-79
2021/10/20 12:11:58;;;;;;;4.45;0.80;;;;;;;3.91;53.82;100190.59;4827866;29;20497;-80
2021/10/20 12:14:40;;;;;;;0.60;0.60;;;;;;;3.92;54.04;100181.97;4826317;29;20514;-79